ADDS METAR Data INFO
IDs: Format: Raw Decoded Include TAF

Data at: 0233 UTC 21 Nov 2017

METAR for:EBBE (Beauvechain(AB), --, BX)
Text:EBBE 210155Z AUTO 22010KT 9000 BKN004/// OVC006/// 10/09 Q1013 YLO
Temperature: 10.0°C ( 50°F)
Dewpoint: 9.0°C ( 48°F) [RH = 93%]
Pressure (altimeter):29.91 inches Hg (1013.0 mb)
Winds:from the SW (220 degrees) at 12 MPH (10 knots; 5.1 m/s)
Visibility: 6 sm ( 9 km)
Ceiling:400 feet AGL
Clouds: broken clouds at 400 feet AGL, overcast cloud deck at 600 feet AGL

TAF for:EBBE (Beauvechain(AB), --, BX)
Text:No data found